Time;durP1;ratioP1;P1;durP2;ratioP2;P2;SDS_P1;SDS_P2;PMS_P1;PMS_P2;Temp;Humidity;BMP_temperature;BMP_pressure;BME280_temperature;BME280_humidity;BME280_pressure;Samples;Min_cycle;Max_cycle;Signal;HPM_P1;HPM_P2
2022/01/28 00:02:03;;;;;;;20.35;4.22;;;5.10;99.90;;;;;;2145140;66;20205;-74
2022/01/28 00:04:46;;;;;;;13.48;2.70;;;5.20;99.90;;;;;;2146778;66;20363;-74
2022/01/28 00:07:28;;;;;;;14.32;2.88;;;5.00;99.90;;;;;;2138067;66;20199;-74
2022/01/28 00:10:10;;;;;;;11.77;2.35;;;4.90;99.90;;;;;;2134103;66;20776;-73
2022/01/28 00:39:30;;;;;;;16.38;3.15;;;4.40;99.90;;;;;;2118458;67;20227;-73
2022/01/28 00:42:14;;;;;;;19.33;4.70;;;4.50;99.90;;;;;;2119039;67;20264;-74
2022/01/28 00:44:57;;;;;;;15.23;3.30;;;4.60;99.90;;;;;;2139466;66;20311;-75
2022/01/28 00:47:39;;;;;;;12.73;3.97;;;4.70;99.90;;;;;;2153430;66;20402;-76
2022/01/28 00:50:20;;;;;;;20.40;4.35;;;4.70;99.90;;;;;;2139513;66;20178;-74
2022/01/28 00:53:05;;;;;;;24.77;4.50;;;4.80;99.90;;;;;;2134526;67;20589;-75
2022/01/28 00:55:47;;;;;;;16.42;3.70;;;4.90;99.90;;;;;;2139462;66;20612;-74
2022/01/28 00:58:31;;;;;;;12.50;4.03;;;5.10;99.90;;;;;;2139509;66;20180;-74
2022/01/28 01:01:14;;;;;;;;;;;5.10;99.90;;;;;;2132900;67;20687;-74
2022/01/28 01:03:58;;;;;;;10.48;3.08;;;5.20;99.90;;;;;;2132672;67;20674;-75
2022/01/28 01:06:40;;;;;;;12.15;3.28;;;5.20;99.90;;;;;;2137575;66;20344;-75
2022/01/28 01:09:22;;;;;;;12.57;3.58;;;5.10;99.90;;;;;;2124798;67;20318;-75
2022/01/28 01:12:05;;;;;;;16.48;3.28;;;5.00;99.90;;;;;;2125356;67;20209;-75
2022/01/28 01:14:47;;;;;;;13.32;3.38;;;5.00;99.90;;;;;;2111207;67;20316;-74
2022/01/28 01:17:35;;;;;;;10.48;2.67;;;4.90;99.90;;;;;;2097346;68;20200;-75
2022/01/28 01:21:08;;;;;;;9.82;3.45;;;5.00;99.90;;;;;;2104002;67;20198;-75
2022/01/28 01:23:29;;;;;;;10.10;3.47;;;4.70;99.90;;;;;;2104310;67;20304;-75
2022/01/28 01:26:12;;;;;;;9.40;3.17;;;4.70;99.90;;;;;;2110583;67;20713;-75
2022/01/28 01:28:56;;;;;;;15.75;3.45;;;4.70;99.90;;;;;;2111354;67;20248;-74
2022/01/28 01:31:41;;;;;;;16.88;4.43;;;4.70;99.90;;;;;;2107770;67;20244;-75
2022/01/28 01:34:23;;;;;;;20.75;3.85;;;4.90;99.90;;;;;;2123329;67;20205;-75
2022/01/28 01:37:05;;;;;;;15.60;3.55;;;4.90;99.90;;;;;;2120257;67;20180;-75
2022/01/28 01:39:47;;;;;;;12.50;3.65;;;4.90;99.90;;;;;;2111413;67;20297;-75
2022/01/28 01:42:47;;;;;;;17.23;3.90;;;4.90;99.90;;;;;;2116914;67;20173;-73
2022/01/28 01:54:14;;;;;;;13.90;4.07;;;4.80;99.90;;;;;;2107484;67;20292;-75
2022/01/28 01:56:59;;;;;;;12.73;3.88;;;4.90;99.90;;;;;;2105106;67;20421;-74
2022/01/28 01:59:42;;;;;;;12.90;4.55;;;5.00;99.90;;;;;;2097098;68;20324;-75
2022/01/28 02:02:24;;;;;;;18.38;3.88;;;5.00;99.90;;;;;;2099400;67;20239;-75
2022/01/28 02:05:06;;;;;;;23.05;4.07;;;5.10;99.90;;;;;;2106085;67;20300;-74
2022/01/28 02:07:53;;;;;;;13.98;4.40;;;5.20;99.90;;;;;;2126942;67;20613;-74
2022/01/28 02:10:37;;;;;;;12.48;4.30;;;5.30;99.90;;;;;;2120734;67;20354;-75
2022/01/28 02:13:20;;;;;;;19.83;3.70;;;5.30;99.90;;;;;;2134028;67;20639;-74
2022/01/28 02:16:06;;;;;;;18.92;4.15;;;5.40;99.90;;;;;;2141101;66;20197;-75
2022/01/28 02:18:48;;;;;;;16.20;3.47;;;5.50;99.90;;;;;;2141467;66;20182;-75
2022/01/28 02:21:49;;;;;;;12.45;3.65;;;5.50;99.90;;;;;;2139014;66;20219;-75
2022/01/28 02:24:40;;;;;;;13.25;3.75;;;5.50;99.90;;;;;;2136676;67;20172;-74
2022/01/28 02:27:26;;;;;;;22.63;4.43;;;5.50;99.90;;;;;;2124748;67;20195;-75
2022/01/28 02:30:13;;;;;;;;;;;5.50;99.90;;;;;;2132394;67;20172;-75
2022/01/28 02:33:02;;;;;;;16.98;4.03;;;5.50;99.90;;;;;;2143535;66;20090;-74
2022/01/28 02:35:44;;;;;;;20.08;4.93;;;5.50;99.90;;;;;;2131602;67;20362;-74
2022/01/28 02:38:27;;;;;;;23.95;4.80;;;5.40;99.90;;;;;;2136705;66;20314;-74
2022/01/28 02:41:09;;;;;;;18.88;4.78;;;5.50;99.90;;;;;;2138222;66;20351;-75
2022/01/28 02:44:18;;;;;;;20.52;6.50;;;5.30;99.90;;;;;;2146444;66;20242;-74
2022/01/28 02:47:03;;;;;;;16.25;4.93;;;5.50;99.90;;;;;;2140430;66;20190;-75
2022/01/28 02:49:45;;;;;;;26.45;4.45;;;5.50;99.90;;;;;;2130127;67;20671;-75
2022/01/28 02:52:49;;;;;;;20.60;4.72;;;5.80;99.90;;;;;;2120877;67;20274;-75
2022/01/28 02:55:35;;;;;;;20.35;3.90;;;5.40;99.90;;;;;;2124713;67;20770;-74
2022/01/28 02:58:21;;;;;;;14.02;4.45;;;5.30;99.90;;;;;;2120201;67;20337;-75
2022/01/28 03:01:05;;;;;;;20.92;4.28;;;5.30;99.90;;;;;;2116152;67;20718;-73
2022/01/28 03:03:49;;;;;;;15.40;4.72;;;5.30;99.90;;;;;;2099344;68;20237;-74
2022/01/28 03:06:33;;;;;;;14.40;4.30;;;5.50;99.90;;;;;;2092089;68;20264;-75
2022/01/28 03:09:19;;;;;;;20.13;4.13;;;5.30;99.90;;;;;;2092514;68;20182;-75
2022/01/28 03:12:15;;;;;;;17.58;4.18;;;5.40;99.90;;;;;;2108431;67;20304;-74
2022/01/28 03:15:04;;;;;;;19.35;4.18;;;5.40;99.90;;;;;;2109075;67;20361;-75
2022/01/28 03:18:06;;;;;;;10.57;3.38;;;5.30;99.90;;;;;;2120155;67;20294;-76
2022/01/28 03:23:37;;;;;;;18.30;4.38;;;5.40;99.90;;;;;;2148872;66;20210;-75
2022/01/28 03:26:25;;;;;;;14.30;3.63;;;5.30;99.90;;;;;;2152931;66;20315;-75
2022/01/28 03:29:10;;;;;;;15.93;3.97;;;5.30;99.90;;;;;;2153037;66;20229;-74
2022/01/28 03:31:54;;;;;;;12.32;3.40;;;5.20;99.90;;;;;;2138428;67;20175;-74
2022/01/28 03:34:38;;;;;;;16.52;4.18;;;5.10;99.90;;;;;;2146879;66;20224;-75
2022/01/28 03:37:22;;;;;;;17.77;4.10;;;5.90;99.90;;;;;;2152534;66;20249;-75
2022/01/28 03:40:07;;;;;;;15.70;4.57;;;5.10;99.90;;;;;;2153565;66;20339;-74
2022/01/28 03:42:51;;;;;;;10.73;3.35;;;5.20;99.90;;;;;;2144676;66;20179;-73
2022/01/28 03:45:36;;;;;;;;;;;5.20;99.90;;;;;;2146258;66;20166;-76
2022/01/28 03:48:23;;;;;;;19.05;3.50;;;5.30;99.90;;;;;;2113477;67;20195;-75
2022/01/28 03:51:05;;;;;;;17.55;4.25;;;5.30;99.90;;;;;;2110715;67;20680;-76
2022/01/28 03:53:47;;;;;;;12.23;3.47;;;5.30;99.90;;;;;;2116559;67;20182;-75
2022/01/28 03:56:32;;;;;;;13.48;4.00;;;5.30;99.90;;;;;;2112189;67;20320;-75
2022/01/28 03:59:14;;;;;;;13.07;3.75;;;5.40;99.90;;;;;;2118731;67;20274;-74
2022/01/28 04:01:56;;;;;;;13.77;3.25;;;5.30;99.90;;;;;;2116217;67;20897;-75
2022/01/28 04:05:41;;;;;;;17.70;4.22;;;5.20;99.90;;;;;;2119158;67;20783;-75
2022/01/28 04:11:51;;;;;;;16.73;3.90;;;5.00;99.90;;;;;;2137278;66;20315;-75
2022/01/28 04:20:06;;;;;;;15.05;3.55;;;4.70;99.90;;;;;;2154659;66;20321;-76
2022/01/28 04:22:59;;;;;;;;;;;4.60;99.90;;;;;;2144212;66;20320;-77
2022/01/28 04:25:42;;;;;;;12.98;3.65;;;4.60;99.90;;;;;;2156113;66;20087;-79
2022/01/28 04:28:24;;;;;;;8.43;3.00;;;4.50;99.90;;;;;;2141857;66;20186;-74
2022/01/28 04:31:07;;;;;;;15.20;3.25;;;4.50;99.90;;;;;;2144344;66;20296;-75
2022/01/28 04:33:52;;;;;;;18.50;4.50;;;4.50;99.90;;;;;;1913857;67;15095608;-75
2022/01/28 04:36:38;;;;;;;16.33;3.85;;;4.50;99.90;;;;;;2142965;66;20669;-76
2022/01/28 04:39:39;;;;;;;18.92;4.07;;;4.50;99.90;;;;;;2134984;67;20163;-76
2022/01/28 04:45:36;;;;;;;21.52;4.70;;;4.50;99.90;;;;;;2129341;67;20172;-75
2022/01/28 04:48:38;;;;;;;18.23;4.15;;;4.60;99.90;;;;;;2138963;66;20323;-75
2022/01/28 04:51:47;;;;;;;16.40;4.03;;;4.70;99.90;;;;;;2132122;67;20445;-75
2022/01/28 05:04:14;;;;;;;22.20;5.05;;;4.70;99.90;;;;;;2138323;67;20202;-75
2022/01/28 05:10:30;;;;;;;20.63;4.10;;;4.50;99.90;;;;;;2120492;67;20336;-74
2022/01/28 05:13:26;;;;;;;21.98;4.10;;;4.40;99.90;;;;;;2124593;67;20325;-74
2022/01/28 05:28:04;;;;;;;18.67;4.05;;;4.20;99.90;;;;;;2139536;67;20344;-76
2022/01/28 05:30:49;;;;;;;25.77;3.90;;;4.20;99.90;;;;;;2127911;67;20433;-74
2022/01/28 05:33:31;;;;;;;13.30;4.38;;;4.20;99.90;;;;;;2139608;67;20933;-75
2022/01/28 05:36:13;;;;;;;18.27;3.50;;;4.30;99.90;;;;;;2127646;66;20289;-74
2022/01/28 05:38:55;;;;;;;13.50;4.68;;;4.30;99.90;;;;;;2128851;67;20171;-75
2022/01/28 05:41:37;;;;;;;11.75;3.92;;;4.40;99.90;;;;;;2120703;67;20278;-75
2022/01/28 05:44:20;;;;;;;20.05;3.90;;;4.50;99.90;;;;;;2125230;67;20199;-75
2022/01/28 05:47:05;;;;;;;12.77;3.53;;;4.80;99.90;;;;;;2144581;66;20345;-75
2022/01/28 05:49:48;;;;;;;23.92;5.05;;;4.70;99.90;;;;;;2147200;66;20770;-75
2022/01/28 05:52:32;;;;;;;16.88;4.43;;;4.70;99.90;;;;;;2154103;66;20730;-76
2022/01/28 05:55:14;;;;;;;22.45;5.03;;;4.80;99.90;;;;;;2144880;66;20294;-74
2022/01/28 05:57:58;;;;;;;23.75;4.80;;;4.80;99.90;;;;;;2132934;67;20661;-75
2022/01/28 06:00:40;;;;;;;19.35;4.53;;;4.80;99.90;;;;;;2146195;66;20182;-76
2022/01/28 06:03:22;;;;;;;17.85;4.10;;;5.10;99.90;;;;;;2139002;67;20400;-75
2022/01/28 06:06:07;;;;;;;17.92;4.95;;;4.90;99.90;;;;;;2139247;67;20182;-75
2022/01/28 06:08:54;;;;;;;14.48;3.85;;;5.00;99.90;;;;;;2137608;67;20351;-75
2022/01/28 06:11:43;;;;;;;20.02;4.25;;;5.00;99.90;;;;;;2139841;67;20204;-79
2022/01/28 06:14:31;;;;;;;15.57;3.72;;;5.10;99.90;;;;;;2115729;67;20346;-75
2022/01/28 06:17:12;;;;;;;22.92;4.53;;;5.10;99.90;;;;;;2105355;67;20413;-75
2022/01/28 06:19:57;;;;;;;15.35;3.55;;;5.10;99.90;;;;;;2117760;67;20349;-76
2022/01/28 06:22:59;;;;;;;15.35;4.35;;;5.20;99.90;;;;;;2121263;67;20402;-74
2022/01/28 06:25:43;;;;;;;22.13;3.88;;;5.10;99.90;;;;;;2127986;67;20262;-74
2022/01/28 06:28:24;;;;;;;18.00;4.53;;;4.90;99.90;;;;;;2133583;67;20272;-75
2022/01/28 06:31:06;;;;;;;19.80;4.22;;;5.00;99.90;;;;;;2135975;67;20226;-76
2022/01/28 06:33:48;;;;;;;20.23;4.43;;;5.00;99.90;;;;;;2126892;67;20238;-76
2022/01/28 06:36:30;;;;;;;17.23;4.68;;;5.00;99.90;;;;;;2141898;66;20282;-75
2022/01/28 06:39:12;;;;;;;19.50;4.50;;;4.90;99.90;;;;;;2127538;67;20325;-74
2022/01/28 06:41:54;;;;;;;24.48;5.15;;;4.80;99.90;;;;;;2144034;66;20358;-75
2022/01/28 06:44:36;;;;;;;22.25;4.78;;;4.80;99.90;;;;;;2146194;66;20915;-74
2022/01/28 06:47:18;;;;;;;21.58;4.85;;;4.70;99.90;;;;;;2146341;66;20811;-75
2022/01/28 06:50:02;;;;;;;19.35;4.53;;;4.70;99.90;;;;;;2140024;66;20340;-76
2022/01/28 06:52:44;;;;;;;16.42;4.35;;;4.70;99.90;;;;;;2135432;67;20294;-74
2022/01/28 06:55:27;;;;;;;20.85;4.82;;;4.70;99.90;;;;;;2139272;66;20413;-75
2022/01/28 06:58:09;;;;;;;17.05;4.30;;;4.60;99.90;;;;;;2133417;67;20433;-76
2022/01/28 07:00:51;;;;;;;17.35;4.05;;;4.60;99.90;;;;;;2132388;67;20569;-75
2022/01/28 07:03:34;;;;;;;15.50;3.28;;;4.50;99.90;;;;;;2140743;66;20208;-75
2022/01/28 07:06:15;;;;;;;10.40;4.38;;;4.50;99.90;;;;;;2132693;67;20230;-75
2022/01/28 07:08:57;;;;;;;13.13;3.65;;;4.40;99.90;;;;;;2124534;67;20251;-75
2022/01/28 07:11:39;;;;;;;19.27;5.15;;;4.30;99.90;;;;;;2117606;67;20249;-74
2022/01/28 07:14:21;;;;;;;17.40;4.20;;;4.30;99.90;;;;;;2111670;67;20480;-76
2022/01/28 07:17:04;;;;;;;22.95;4.72;;;4.30;99.90;;;;;;2124558;67;20176;-75
2022/01/28 07:19:46;;;;;;;16.95;3.92;;;4.20;99.90;;;;;;2128676;67;20542;-75
2022/01/28 07:22:28;;;;;;;20.33;5.32;;;4.30;99.90;;;;;;2142980;66;20696;-76
2022/01/28 07:25:09;;;;;;;16.50;5.00;;;4.30;99.90;;;;;;2126040;67;20184;-75
2022/01/28 07:27:50;;;;;;;13.60;4.32;;;4.30;99.90;;;;;;2147208;66;20336;-76
2022/01/28 07:30:32;;;;;;;16.05;4.03;;;4.40;99.90;;;;;;2147412;66;20290;-75
2022/01/28 07:33:14;;;;;;;12.48;4.18;;;4.40;99.90;;;;;;2140531;66;20249;-75
2022/01/28 07:35:57;;;;;;;17.13;3.90;;;4.40;99.90;;;;;;2139889;66;20244;-76
2022/01/28 07:38:38;;;;;;;21.88;4.35;;;4.50;99.90;;;;;;2130453;67;20259;-75
2022/01/28 07:41:26;;;;;;;21.88;4.40;;;4.60;99.90;;;;;;2136616;67;20450;-75
2022/01/28 07:44:12;;;;;;;19.55;4.47;;;4.60;99.90;;;;;;2119497;67;20169;-75
2022/01/28 07:46:54;;;;;;;13.13;4.22;;;4.60;99.90;;;;;;2112184;67;20354;-75
2022/01/28 07:49:35;;;;;;;21.48;4.57;;;4.60;99.90;;;;;;2095740;68;20223;-75
2022/01/28 07:52:19;;;;;;;16.55;4.43;;;4.60;99.90;;;;;;2105623;68;20174;-76
2022/01/28 07:55:10;;;;;;;17.52;4.63;;;4.60;99.90;;;;;;2119416;67;20381;-75
2022/01/28 07:57:55;;;;;;;21.25;5.10;;;4.60;99.90;;;;;;2120214;67;20382;-75
2022/01/28 08:00:42;;;;;;;14.65;4.53;;;4.50;99.90;;;;;;2119012;67;20781;-76
2022/01/28 08:03:26;;;;;;;17.80;4.70;;;4.40;99.90;;;;;;2128996;67;20363;-72
2022/01/28 08:06:08;;;;;;;18.10;4.53;;;4.40;99.90;;;;;;2134438;67;20230;-72
2022/01/28 08:08:52;;;;;;;18.05;4.30;;;4.50;99.90;;;;;;2133294;66;20240;-72
2022/01/28 08:11:36;;;;;;;23.00;5.63;;;4.50;99.90;;;;;;2145722;66;20245;-72
2022/01/28 08:14:19;;;;;;;12.85;3.70;;;4.50;99.90;;;;;;2133689;66;20315;-71
2022/01/28 08:17:12;;;;;;;18.95;4.70;;;4.60;99.90;;;;;;2140904;66;20175;-73
2022/01/28 08:20:10;;;;;;;24.63;5.05;;;4.70;99.90;;;;;;2148496;66;20186;-73
2022/01/28 08:22:53;;;;;;;15.43;4.28;;;4.80;99.90;;;;;;2158523;66;20188;-72
2022/01/28 08:25:36;;;;;;;14.15;3.75;;;4.80;99.90;;;;;;2158346;66;20376;-72
2022/01/28 08:28:18;;;;;;;12.13;4.15;;;4.90;99.90;;;;;;2168394;65;20181;-72
2022/01/28 08:31:00;;;;;;;24.52;4.88;;;5.00;99.90;;;;;;2168813;65;20341;-77
2022/01/28 08:33:42;;;;;;;16.92;4.30;;;5.00;99.90;;;;;;2166289;66;20243;-75
2022/01/28 08:36:25;;;;;;;20.42;4.95;;;4.90;99.90;;;;;;2160738;66;20229;-74
2022/01/28 08:39:10;;;;;;;16.05;4.57;;;4.90;99.90;;;;;;2147379;66;20543;-76
2022/01/28 08:41:52;;;;;;;20.98;4.03;;;4.80;99.90;;;;;;2149494;66;20173;-82
2022/01/28 08:44:37;;;;;;;10.10;3.72;;;5.00;99.90;;;;;;2154762;66;20274;-79
2022/01/28 08:47:21;;;;;;;18.73;4.47;;;4.70;99.90;;;;;;2154847;66;20207;-81
2022/01/28 08:50:04;;;;;;;18.65;4.50;;;4.70;99.90;;;;;;2140659;67;20308;-77
2022/01/28 08:52:47;;;;;;;16.25;4.38;;;4.60;99.90;;;;;;2132651;67;20384;-75
2022/01/28 08:55:28;;;;;;;18.58;4.50;;;4.70;99.90;;;;;;2126277;67;20227;-78
2022/01/28 08:58:11;;;;;;;20.48;4.47;;;4.70;99.90;;;;;;2132837;67;20879;-77
2022/01/28 09:00:59;;;;;;;19.30;4.35;;;4.80;99.90;;;;;;2134153;67;20205;-76
2022/01/28 09:03:42;;;;;;;21.15;5.00;;;5.80;99.90;;;;;;2123044;67;20184;-75
2022/01/28 09:06:25;;;;;;;23.75;5.25;;;4.80;99.90;;;;;;2115983;67;20243;-82
2022/01/28 09:09:07;;;;;;;19.70;4.43;;;5.60;99.90;;;;;;2102805;67;20270;-75
2022/01/28 09:14:33;;;;;;;20.60;5.43;;;5.00;99.90;;;;;;2107081;67;20227;-75
2022/01/28 09:17:15;;;;;;;21.63;3.63;;;5.10;99.90;;;;;;2123508;67;20596;-73
2022/01/28 09:19:59;;;;;;;20.63;4.47;;;5.40;99.90;;;;;;2132487;67;20351;-78
2022/01/28 09:22:44;;;;;;;24.50;4.50;;;5.50;99.90;;;;;;2118404;67;20347;-75
2022/01/28 09:25:29;;;;;;;13.70;4.10;;;5.60;99.90;;;;;;2117709;67;20173;-80
2022/01/28 09:28:11;;;;;;;19.33;4.57;;;5.80;99.90;;;;;;2136792;66;20179;-79
2022/01/28 09:30:53;;;;;;;18.67;4.80;;;5.90;99.90;;;;;;2131989;67;20873;-74
2022/01/28 09:33:37;;;;;;;17.52;5.68;;;6.00;99.90;;;;;;2118355;67;20202;-73
2022/01/28 09:36:19;;;;;;;22.42;5.15;;;6.70;99.90;;;;;;2112135;67;20644;-75
2022/01/28 09:39:02;;;;;;;17.60;4.65;;;6.40;99.90;;;;;;2117647;67;20385;-75
2022/01/28 09:41:47;;;;;;;17.13;4.82;;;6.50;99.90;;;;;;2122105;67;20449;-75
2022/01/28 09:44:34;;;;;;;15.15;4.38;;;6.60;99.90;;;;;;2132344;67;20352;-71
2022/01/28 09:47:17;;;;;;;24.27;5.07;;;6.80;99.90;;;;;;2126586;67;20346;-77
2022/01/28 09:49:59;;;;;;;16.83;3.78;;;6.70;99.90;;;;;;2124431;67;20204;-73
2022/01/28 09:52:39;;;;;;;15.90;4.47;;;6.80;99.90;;;;;;2132587;66;20214;-77
2022/01/28 09:55:12;;;;;;;16.88;4.35;;;6.80;99.90;;;;;;2153540;66;20346;-75
2022/01/28 09:57:43;;;;;;;24.50;5.45;;;7.20;99.90;;;;;;2161524;66;20627;-75
2022/01/28 10:00:15;;;;;;;15.77;4.40;;;6.90;99.90;;;;;;2161084;66;20192;-74
2022/01/28 10:02:55;;;;;;;20.85;4.10;;;6.90;99.90;;;;;;2167374;66;20240;-75
2022/01/28 10:05:50;;;;;;;13.65;4.50;;;7.00;99.90;;;;;;2160439;66;20205;-77
2022/01/28 10:08:28;;;;;;;17.92;5.18;;;7.00;99.90;;;;;;2177362;65;20295;-78
2022/01/28 10:11:20;;;;;;;23.52;4.28;;;7.20;99.90;;;;;;2168702;66;20346;-75
2022/01/28 10:14:07;;;;;;;15.95;4.47;;;7.20;99.90;;;;;;2189986;65;20270;-77
2022/01/28 10:17:00;;;;;;;21.70;4.28;;;7.20;99.90;;;;;;2205695;65;20184;-76
2022/01/28 10:19:40;;;;;;;19.88;5.03;;;7.30;99.90;;;;;;2206522;64;20326;-74
2022/01/28 10:22:18;;;;;;;20.35;4.78;;;7.30;99.90;;;;;;2204941;65;20162;-74
2022/01/28 10:25:56;;;;;;;14.60;4.47;;;7.40;99.90;;;;;;2193919;65;20222;-72
2022/01/28 10:28:57;;;;;;;25.70;4.50;;;7.40;99.90;;;;;;2187091;65;20658;-74
2022/01/28 10:31:45;;;;;;;21.48;4.88;;;7.40;99.90;;;;;;2205500;65;20211;-79
2022/01/28 10:34:55;;;;;;;22.60;5.50;;;7.40;99.90;;;;;;2180268;65;20296;-72
2022/01/28 10:37:34;;;;;;;;;;;7.40;99.90;;;;;;2183766;65;20218;-78
2022/01/28 10:41:06;;;;;;;22.42;5.07;;;7.50;99.90;;;;;;2162970;66;20048;-76
2022/01/28 10:43:48;;;;;;;18.00;5.32;;;7.50;99.90;;;;;;2175590;65;20175;-76
2022/01/28 10:46:34;;;;;;;17.52;5.18;;;7.50;99.90;;;;;;2175317;65;20187;-77
2022/01/28 10:49:10;;;;;;;23.67;5.20;;;7.60;99.90;;;;;;2175501;65;20253;-76
2022/01/28 10:51:49;;;;;;;17.08;4.80;;;7.70;99.90;;;;;;2178267;65;20299;-78
2022/01/28 10:54:26;;;;;;;20.98;5.18;;;7.80;99.90;;;;;;2199266;65;20398;-77
2022/01/28 10:57:08;;;;;;;10.77;3.38;;;7.70;99.90;;;;;;2193029;65;20228;-77
2022/01/28 10:59:50;;;;;;;16.35;4.50;;;7.70;99.90;;;;;;2203730;64;20189;-78
2022/01/28 11:02:35;;;;;;;22.95;4.65;;;7.70;99.90;;;;;;2198355;65;20320;-79
2022/01/28 11:05:18;;;;;;;;;;;7.70;99.90;;;;;;2183349;65;20409;-78
2022/01/28 11:08:01;;;;;;;19.60;5.07;;;7.70;99.90;;;;;;2168506;65;20226;-75
2022/01/28 11:10:44;;;;;;;19.55;4.90;;;7.70;99.90;;;;;;2154163;66;20264;-76
2022/01/28 11:13:25;;;;;;;16.25;3.95;;;7.80;99.90;;;;;;2161335;66;20165;-80
2022/01/28 11:16:08;;;;;;;18.67;4.28;;;8.00;99.90;;;;;;2147119;66;20162;-81
2022/01/28 11:18:50;;;;;;;11.38;3.72;;;8.10;99.90;;;;;;2140315;66;20895;-81
2022/01/28 11:21:46;;;;;;;18.52;4.68;;;8.20;99.90;;;;;;2140382;66;20246;-80
2022/01/28 11:25:09;;;;;;;15.00;4.63;;;8.30;99.90;;;;;;2134850;67;20234;-80
2022/01/28 11:27:53;;;;;;;20.17;4.45;;;8.20;99.90;;;;;;2122553;67;20922;-80
2022/01/28 11:30:36;;;;;;;20.08;4.78;;;8.10;99.90;;;;;;2129006;67;20354;-80
2022/01/28 11:33:21;;;;;;;17.85;4.55;;;8.00;99.90;;;;;;2130202;67;20676;-81
2022/01/28 11:36:04;;;;;;;15.82;4.13;;;7.90;99.90;;;;;;2120923;67;20261;-79
2022/01/28 11:38:47;;;;;;;16.50;4.50;;;7.80;99.90;;;;;;2117095;67;20321;-75
2022/01/28 11:41:32;;;;;;;18.85;4.72;;;7.70;99.90;;;;;;2136406;67;20207;-76
2022/01/28 11:44:54;;;;;;;13.98;3.92;;;8.00;99.90;;;;;;2133874;66;20198;-75
2022/01/28 11:47:41;;;;;;;18.23;4.60;;;8.40;99.90;;;;;;2137208;66;20222;-76
2022/01/28 11:50:24;;;;;;;20.02;4.03;;;8.80;99.90;;;;;;2157703;66;20339;-76
2022/01/28 11:53:21;;;;;;;20.35;5.05;;;9.00;99.90;;;;;;2154223;66;20291;-78
2022/01/28 11:56:04;;;;;;;21.63;5.35;;;9.00;99.90;;;;;;2148782;66;20247;-85
2022/01/28 11:58:54;;;;;;;14.27;4.25;;;9.10;99.90;;;;;;2128041;67;20222;-81
2022/01/28 12:01:40;;;;;;;22.70;4.50;;;9.20;99.90;;;;;;2113064;67;20198;-80
2022/01/28 12:04:29;;;;;;;15.90;3.50;;;9.40;99.90;;;;;;2114408;67;20267;-75
2022/01/28 12:07:27;;;;;;;14.40;4.13;;;9.50;99.90;;;;;;2108603;67;20612;-73
2022/01/28 12:10:09;;;;;;;17.67;3.45;;;9.50;99.90;;;;;;2108609;67;21000;-72
2022/01/28 12:13:00;;;;;;;19.10;4.47;;;9.60;99.90;;;;;;2118626;67;20381;-72
2022/01/28 12:15:59;;;;;;;14.48;3.55;;;9.40;99.90;;;;;;2105290;67;20686;-77
2022/01/28 12:18:54;;;;;;;16.23;4.40;;;9.20;99.90;;;;;;2114951;67;20609;-73
2022/01/28 12:21:37;;;;;;;17.02;3.95;;;9.00;99.90;;;;;;2106649;67;20435;-76
2022/01/28 12:24:22;;;;;;;18.40;4.28;;;8.90;99.90;;;;;;2104320;68;20361;-78
2022/01/28 12:27:06;;;;;;;10.80;3.05;;;8.90;99.90;;;;;;2107675;67;20718;-79
2022/01/28 12:29:52;;;;;;;14.35;3.50;;;8.90;99.90;;;;;;2131258;66;20558;-79
2022/01/28 12:32:36;;;;;;;13.82;3.45;;;9.00;99.90;;;;;;2137079;66;20175;-73
2022/01/28 12:35:20;;;;;;;15.45;3.70;;;9.20;99.90;;;;;;2128144;67;20294;-78
2022/01/28 12:38:05;;;;;;;11.20;3.65;;;9.30;99.90;;;;;;2120541;67;20362;-79
2022/01/28 12:40:51;;;;;;;17.13;4.00;;;9.40;99.90;;;;;;2109495;67;20642;-79
2022/01/28 12:43:33;;;;;;;17.75;4.53;;;9.50;99.90;;;;;;2109539;67;20249;-75
2022/01/28 12:46:15;;;;;;;11.38;2.75;;;9.60;99.90;;;;;;2124473;67;20377;-73
2022/01/28 12:49:02;;;;;;;17.30;3.72;;;9.50;99.90;;;;;;2119328;67;20351;-81
2022/01/28 12:51:48;;;;;;;11.18;3.33;;;9.50;99.90;;;;;;2127763;67;20792;-74
2022/01/28 12:54:41;;;;;;;13.55;3.20;;;9.80;99.90;;;;;;2132326;67;20223;-81
2022/01/28 12:57:23;;;;;;;13.18;3.55;;;10.30;99.90;;;;;;2115458;67;20371;-75
2022/01/28 13:00:09;;;;;;;13.00;3.42;;;10.80;99.90;;;;;;2110120;67;20185;-74
2022/01/28 13:02:51;;;;;;;18.08;3.55;;;11.30;99.90;;;;;;2111862;67;20181;-77
2022/01/28 13:05:37;;;;;;;11.52;3.17;;;11.30;99.90;;;;;;2112712;67;20276;-79
2022/01/28 13:08:27;;;;;;;14.23;3.42;;;11.10;99.30;;;;;;2118970;67;20205;-84
2022/01/28 13:11:06;;;;;;;12.60;3.03;;;10.90;99.20;;;;;;2126140;67;20305;-84
2022/01/28 13:13:55;;;;;;;16.40;3.83;;;10.60;99.90;;;;;;2134038;66;20335;-78
2022/01/28 13:16:32;;;;;;;11.68;3.55;;;10.30;99.00;;;;;;2147706;66;20232;-78
2022/01/28 13:19:13;;;;;;;17.65;4.35;;;9.90;99.90;;;;;;2163950;65;20346;-80
2022/01/28 13:21:57;;;;;;;9.57;3.22;;;9.70;99.90;;;;;;2182303;65;20237;-78
2022/01/28 13:24:36;;;;;;;16.25;3.38;;;9.40;99.90;;;;;;2182911;65;20200;-77
2022/01/28 13:27:16;;;;;;;14.30;3.70;;;9.40;99.90;;;;;;2183548;65;20171;-77
2022/01/28 13:29:55;;;;;;;11.35;2.72;;;9.40;99.90;;;;;;2195124;65;20161;-78
2022/01/28 13:32:40;;;;;;;10.07;2.75;;;9.90;99.90;;;;;;2195772;65;20205;-76
2022/01/28 13:35:41;;;;;;;16.77;3.28;;;9.90;99.90;;;;;;2224851;64;20247;-78
2022/01/28 13:38:20;;;;;;;13.82;3.65;;;10.40;99.90;;;;;;2225393;64;20339;-78
2022/01/28 13:40:59;;;;;;;11.18;3.40;;;10.80;99.90;;;;;;2226206;64;20214;-78
2022/01/28 13:43:41;;;;;;;10.00;3.38;;;11.30;99.90;;;;;;2226266;64;20314;-79
2022/01/28 13:46:19;;;;;;;12.10;3.50;;;11.50;99.10;;;;;;2227422;64;20346;-77
2022/01/28 13:48:59;;;;;;;12.48;3.58;;;11.40;99.80;;;;;;2226917;64;20246;-78
2022/01/28 13:51:50;;;;;;;11.98;2.85;;;11.10;99.00;;;;;;2217056;64;20308;-78
2022/01/28 13:54:32;;;;;;;11.48;3.35;;;10.80;98.70;;;;;;2217754;64;20434;-78
2022/01/28 13:57:05;;;;;;;13.40;3.35;;;10.60;99.40;;;;;;2221206;64;20257;-78
2022/01/28 13:59:44;;;;;;;13.25;4.43;;;10.60;99.90;;;;;;2218480;64;20668;-78
2022/01/28 14:02:40;;;;;;;11.95;2.63;;;10.60;99.90;;;;;;2229022;63;20857;-77
2022/01/28 14:05:20;;;;;;;13.65;4.07;;;10.50;99.90;;;;;;2236375;63;20382;-84
2022/01/28 14:08:02;;;;;;;11.88;2.85;;;10.50;99.90;;;;;;2214733;64;20317;-84
2022/01/28 14:10:41;;;;;;;14.00;4.53;;;10.50;99.90;;;;;;2214590;64;20201;-84
2022/01/28 14:13:23;;;;;;;13.75;3.17;;;10.40;99.90;;;;;;2212967;64;20193;-89
2022/01/28 14:16:13;;;;;;;13.77;3.47;;;10.40;99.90;;;;;;2216751;64;20339;-86
2022/01/28 14:18:59;;;;;;;10.52;3.10;;;10.10;99.90;;;;;;2214077;64;20853;-86
2022/01/28 14:21:59;;;;;;;11.57;3.33;;;9.90;99.90;;;;;;2207564;64;20313;-95
2022/01/28 14:24:52;;;;;;;15.27;3.53;;;9.70;99.90;;;;;;2184998;65;20183;-79
2022/01/28 14:30:20;;;;;;;10.18;2.88;;;9.70;99.90;;;;;;2183896;65;20199;-82
2022/01/28 14:33:00;;;;;;;13.93;3.38;;;9.80;99.90;;;;;;2183985;65;20175;-84
2022/01/28 14:35:38;;;;;;;8.82;3.17;;;9.90;99.90;;;;;;2183064;65;20202;-83
2022/01/28 14:38:15;;;;;;;9.90;2.95;;;9.90;99.90;;;;;;2186588;65;20661;-84
2022/01/28 14:40:58;;;;;;;9.82;3.13;;;9.70;99.90;;;;;;2204125;64;20165;-75
2022/01/28 14:43:34;;;;;;;14.15;4.47;;;9.60;99.90;;;;;;2201429;64;20186;-77
2022/01/28 14:46:14;;;;;;;11.48;3.38;;;9.40;99.90;;;;;;2206200;64;20339;-83
2022/01/28 14:49:00;;;;;;;11.15;2.90;;;9.30;99.90;;;;;;2213822;64;20307;-75
2022/01/28 14:51:55;;;;;;;13.63;3.30;;;8.90;99.90;;;;;;2204630;64;20330;-76
2022/01/28 14:54:50;;;;;;;13.40;3.67;;;8.90;99.90;;;;;;2197945;65;20246;-73
2022/01/28 14:57:32;;;;;;;12.93;2.58;;;8.80;99.90;;;;;;2198362;65;20638;-75
2022/01/28 15:00:11;;;;;;;11.32;1.95;;;8.70;99.90;;;;;;2197387;65;20237;-76
2022/01/28 15:02:48;;;;;;;14.95;3.20;;;8.60;99.90;;;;;;2201042;64;20382;-77
2022/01/28 15:05:28;;;;;;;12.32;2.33;;;8.40;99.90;;;;;;2205178;64;20199;-72
2022/01/28 15:08:09;;;;;;;11.00;3.08;;;8.40;99.90;;;;;;2204635;64;20219;-73
2022/01/28 15:10:56;;;;;;;11.30;3.35;;;8.20;99.90;;;;;;2190436;65;20240;-75
2022/01/28 15:13:38;;;;;;;9.40;2.47;;;8.10;99.90;;;;;;2207016;64;20217;-75
2022/01/28 15:16:20;;;;;;;8.82;2.78;;;8.20;99.90;;;;;;2199513;65;20530;-82
2022/01/28 15:19:03;;;;;;;8.27;2.67;;;8.00;99.90;;;;;;2204105;65;20640;-80
2022/01/28 15:21:50;;;;;;;7.47;2.47;;;7.80;99.90;;;;;;2176684;65;20238;-74
2022/01/28 15:24:33;;;;;;;9.68;2.70;;;7.80;99.90;;;;;;2168599;65;20207;-75
2022/01/28 15:27:19;;;;;;;10.93;2.30;;;7.80;99.90;;;;;;2157145;66;20652;-73
2022/01/28 15:30:05;;;;;;;8.65;2.85;;;7.70;99.90;;;;;;2159824;66;20248;-74
2022/01/28 15:36:00;;;;;;;11.60;2.65;;;7.60;99.90;;;;;;2144050;66;20275;-76
2022/01/28 15:38:42;;;;;;;10.02;2.30;;;7.60;99.90;;;;;;2129533;67;20208;-72
2022/01/28 15:41:24;;;;;;;8.65;2.33;;;7.50;99.90;;;;;;2127435;67;20270;-76
2022/01/28 15:44:06;;;;;;;14.82;3.30;;;7.40;99.90;;;;;;2131481;67;20309;-73
2022/01/28 15:46:53;;;;;;;12.57;3.13;;;7.60;99.90;;;;;;2123392;67;20187;-73